Time;durP1;ratioP1;P1;durP2;ratioP2;P2;SDS_P1;SDS_P2;PMS_P1;PMS_P2;Temp;Humidity;BMP_temperature;BMP_pressure;BME280_temperature;BME280_humidity;BME280_pressure;Samples;Min_cycle;Max_cycle;Signal;HPM_P1;HPM_P2
2023/11/09 00:01:34;;;;;;;6.90;5.05;;;;;;;5.30;71.04;98153.03;4964737;28;104044;-70
2023/11/09 00:04:03;;;;;;;6.50;4.78;;;;;;;5.33;70.53;98152.72;4988922;28;103247;-68
2023/11/09 00:06:34;;;;;;;6.90;5.00;;;;;;;5.34;70.76;98148.31;4987710;28;102562;-69
2023/11/09 00:09:02;;;;;;;11.32;5.75;;;;;;;5.32;70.65;98148.47;4980564;28;102930;-69
2023/11/09 00:11:30;;;;;;;11.80;5.68;;;;;;;5.28;70.82;98142.69;4988168;28;103105;-69
2023/11/09 00:13:58;;;;;;;10.05;5.70;;;;;;;5.30;71.06;98137.28;4990563;28;103045;-69
2023/11/09 00:16:27;;;;;;;13.07;6.50;;;;;;;5.28;71.12;98131.38;4968644;28;102683;-69
2023/11/09 00:18:57;;;;;;;10.48;6.65;;;;;;;5.26;71.10;98130.69;4971085;28;104334;-68
2023/11/09 00:21:25;;;;;;;9.90;6.18;;;;;;;5.25;70.95;98129.88;4986100;28;104103;-68
2023/11/09 00:23:53;;;;;;;9.40;6.10;;;;;;;5.25;71.19;98123.78;4991539;28;103263;-70
2023/11/09 00:26:21;;;;;;;7.93;5.22;;;;;;;5.25;71.16;98122.00;4968506;28;102752;-68
2023/11/09 00:28:50;;;;;;;7.55;5.32;;;;;;;5.25;71.06;98118.53;4984238;28;102656;-68
2023/11/09 00:31:19;;;;;;;10.82;6.55;;;;;;;5.20;70.88;98111.09;4966007;28;103550;-68
2023/11/09 00:33:47;;;;;;;8.85;5.50;;;;;;;5.10;71.27;98113.78;4969725;28;103790;-69
2023/11/09 00:36:17;;;;;;;12.30;7.82;;;;;;;5.04;71.34;98111.72;4985264;28;102663;-68
2023/11/09 00:38:46;;;;;;;7.40;5.07;;;;;;;5.00;71.58;98107.75;4988538;28;103775;-68
2023/11/09 00:41:14;;;;;;;10.88;6.68;;;;;;;4.99;71.70;98113.97;4968535;28;103417;-69
2023/11/09 00:43:45;;;;;;;7.63;5.00;;;;;;;4.96;71.88;98114.28;4970925;28;103171;-69
2023/11/09 00:46:15;;;;;;;16.42;7.25;;;;;;;4.79;72.23;98115.88;4967677;28;102749;-69
2023/11/09 00:48:43;;;;;;;10.02;6.40;;;;;;;4.76;72.18;98113.56;4966382;28;102772;-69
2023/11/09 00:51:11;;;;;;;10.23;6.13;;;;;;;4.72;72.13;98110.41;4974647;28;104416;-69
2023/11/09 00:53:40;;;;;;;9.60;6.65;;;;;;;4.68;72.25;98119.53;4964020;28;103267;-69
2023/11/09 00:56:07;;;;;;;10.50;5.85;;;;;;;4.68;72.64;98116.91;4974003;28;104666;-69
2023/11/09 00:58:35;;;;;;;7.68;5.25;;;;;;;4.60;72.51;98115.00;4991118;28;103050;-69
2023/11/09 01:01:04;;;;;;;9.35;6.40;;;;;;;4.57;72.60;98115.31;4988713;28;103895;-69
2023/11/09 01:03:32;;;;;;;8.35;5.18;;;;;;;4.65;72.81;98106.69;4963730;28;103356;-69
2023/11/09 01:06:05;;;;;;;7.63;4.72;;;;;;;4.71;72.86;98106.09;4980273;28;102646;-73
2023/11/09 01:08:33;;;;;;;11.38;7.15;;;;;;;4.74;72.67;98111.09;4969377;28;103317;-69
2023/11/09 01:11:05;;;;;;;7.78;4.82;;;;;;;4.74;72.27;98100.59;4965637;28;104249;-69
2023/11/09 01:13:34;;;;;;;9.35;6.15;;;;;;;4.78;72.11;98099.31;4968599;28;103155;-69
2023/11/09 01:16:03;;;;;;;8.70;4.55;;;;;;;4.78;72.31;98094.09;4970071;28;102667;-69
2023/11/09 01:18:31;;;;;;;12.25;7.28;;;;;;;4.79;72.43;98095.75;4991488;28;103206;-69
2023/11/09 01:20:59;;;;;;;9.32;7.38;;;;;;;4.75;72.20;98086.47;4966751;28;103850;-69
2023/11/09 01:23:27;;;;;;;11.55;7.13;;;;;;;4.77;72.24;98079.31;4986968;28;103177;-69
2023/11/09 01:25:56;;;;;;;14.57;8.93;;;;;;;4.68;72.16;98074.94;4989241;28;102804;-69
2023/11/09 01:28:25;;;;;;;9.57;7.05;;;;;;;4.51;73.19;98079.16;4970792;28;104160;-69
2023/11/09 01:30:53;;;;;;;13.50;7.57;;;;;;;4.36;73.77;98076.16;4968868;28;103363;-69
2023/11/09 01:33:21;;;;;;;11.32;7.20;;;;;;;4.36;73.65;98067.47;4985532;28;103485;-69
2023/11/09 01:35:49;;;;;;;11.18;7.18;;;;;;;4.28;73.97;98073.44;4990909;28;102737;-69
2023/11/09 01:38:17;;;;;;;12.25;7.05;;;;;;;4.19;73.89;98062.00;4965149;28;102862;-68
2023/11/09 01:40:51;;;;;;;10.15;6.68;;;;;;;4.25;74.65;98065.88;4965313;28;103567;-69
2023/11/09 01:43:20;;;;;;;12.68;7.20;;;;;;;4.32;73.65;98061.69;4967474;28;103226;-69
2023/11/09 01:45:51;;;;;;;9.55;5.60;;;;;;;4.39;73.62;98052.28;4985008;28;103668;-69
2023/11/09 01:48:21;;;;;;;7.57;5.50;;;;;;;4.44;73.30;98050.06;4989492;28;102602;-69
2023/11/09 01:50:51;;;;;;;10.43;6.57;;;;;;;4.43;72.67;98048.41;4981641;28;104004;-68
2023/11/09 01:53:20;;;;;;;11.77;7.20;;;;;;;4.38;73.22;98042.78;4983183;28;103195;-69
2023/11/09 01:55:49;;;;;;;11.93;6.97;;;;;;;4.10;73.79;98039.28;4987945;28;103020;-68
2023/11/09 01:58:17;;;;;;;10.18;6.95;;;;;;;3.89;74.90;98035.09;4991105;28;103280;-68
2023/11/09 02:00:46;;;;;;;14.00;7.00;;;;;;;3.89;74.75;98032.47;4971676;28;104095;-69
2023/11/09 02:03:16;;;;;;;10.38;5.70;;;;;;;4.02;74.98;98034.75;4968707;28;103467;-69
2023/11/09 02:05:49;;;;;;;11.35;6.68;;;;;;;4.03;74.42;98020.69;4973541;28;102775;-67
2023/11/09 02:08:18;;;;;;;10.50;6.68;;;;;;;3.95;74.80;98026.63;4984784;28;104022;-69
2023/11/09 02:10:46;;;;;;;9.15;6.05;;;;;;;4.13;73.80;98023.28;4976640;28;103198;-68
2023/11/09 02:13:15;;;;;;;8.43;4.88;;;;;;;4.23;73.48;98024.06;4971779;28;103217;-68
2023/11/09 02:15:45;;;;;;;10.88;5.68;;;;;;;4.33;72.85;98018.78;4967845;28;102711;-69
2023/11/09 02:18:15;;;;;;;8.60;5.45;;;;;;;4.31;73.07;98011.06;4967465;28;104334;-68
2023/11/09 02:20:43;;;;;;;10.85;5.93;;;;;;;4.20;73.13;98007.81;4969093;28;104358;-68
2023/11/09 02:23:13;;;;;;;9.40;5.22;;;;;;;4.30;73.12;98003.34;4981383;28;103155;-68
2023/11/09 02:25:43;;;;;;;8.82;4.75;;;;;;;4.39;72.92;98014.75;4969155;28;102726;-68
2023/11/09 02:28:11;;;;;;;7.03;4.70;;;;;;;4.46;73.09;97998.28;4964164;28;102841;-69
2023/11/09 02:30:40;;;;;;;5.85;3.92;;;;;;;4.54;72.16;98004.59;4966884;28;103201;-69
2023/11/09 02:33:08;;;;;;;6.68;4.65;;;;;;;4.50;72.45;97988.34;4971848;28;103355;-68
2023/11/09 02:35:37;;;;;;;12.20;5.70;;;;;;;4.37;72.70;97991.28;4970454;28;103789;-69
2023/11/09 02:38:06;;;;;;;9.45;5.70;;;;;;;4.17;73.24;97987.09;4964686;28;103107;-68
2023/11/09 02:40:33;;;;;;;12.93;6.15;;;;;;;4.03;73.35;97981.38;4972323;28;103491;-69
2023/11/09 02:43:03;;;;;;;8.88;6.05;;;;;;;3.97;73.58;97972.31;4990426;28;103185;-68
2023/11/09 02:45:32;;;;;;;9.40;5.65;;;;;;;3.98;74.03;97965.25;4993709;28;102752;-68
2023/11/09 02:48:00;;;;;;;9.57;5.55;;;;;;;3.98;73.72;97967.88;4993583;28;103715;-70
2023/11/09 02:50:29;;;;;;;12.15;5.70;;;;;;;3.88;74.06;97957.47;4969672;28;104112;-69
2023/11/09 02:52:56;;;;;;;15.35;5.68;;;;;;;3.99;73.82;97964.28;4986031;28;103241;-69
2023/11/09 02:55:27;;;;;;;11.38;5.68;;;;;;;3.95;73.93;97957.69;4970608;28;102796;-68
2023/11/09 02:57:55;;;;;;;10.45;6.40;;;;;;;3.95;73.72;97952.47;4973647;28;103051;-69
2023/11/09 03:00:25;;;;;;;12.25;6.13;;;;;;;4.00;73.27;97944.19;4970162;28;104036;-69
2023/11/09 03:02:53;;;;;;;10.13;5.63;;;;;;;3.98;74.05;97939.06;4971939;28;103434;-68
2023/11/09 03:05:21;;;;;;;11.45;6.10;;;;;;;3.90;73.64;97945.03;4995002;28;102667;-69
2023/11/09 03:07:50;;;;;;;10.20;6.20;;;;;;;3.81;74.32;97951.97;4985366;28;102661;-68
2023/11/09 03:10:18;;;;;;;13.00;6.70;;;;;;;3.91;73.86;97966.81;4986777;28;103441;-68
2023/11/09 03:12:47;;;;;;;7.45;5.18;;;;;;;3.63;74.94;97961.53;4990717;28;103248;-68
2023/11/09 03:15:16;;;;;;;10.85;6.35;;;;;;;3.53;74.81;97961.56;4988519;28;102733;-69
2023/11/09 03:17:46;;;;;;;8.60;5.88;;;;;;;3.54;74.91;97954.50;4988750;28;103357;-68
2023/11/09 03:20:14;;;;;;;12.70;6.80;;;;;;;3.61;75.24;97958.22;4983805;28;103383;-68
2023/11/09 03:22:45;;;;;;;10.52;6.90;;;;;;;3.68;74.64;97948.81;4991732;28;103052;-69
2023/11/09 03:25:13;;;;;;;11.32;6.78;;;;;;;3.35;76.05;97945.75;4985670;28;102635;-69
2023/11/09 03:27:41;;;;;;;7.68;5.32;;;;;;;3.46;75.35;97942.97;4986772;28;103878;-68
2023/11/09 03:30:10;;;;;;;10.00;6.25;;;;;;;3.40;75.11;97943.53;4988349;28;103090;-69
2023/11/09 03:32:41;;;;;;;9.98;5.50;;;;;;;3.32;76.00;97940.78;4969938;28;103203;-68
2023/11/09 03:35:12;;;;;;;7.57;5.28;;;;;;;3.40;75.58;97938.28;4982213;28;102574;-69
2023/11/09 03:37:42;;;;;;;6.68;5.00;;;;;;;3.54;75.03;97938.78;4971044;28;103752;-68
2023/11/09 03:40:11;;;;;;;7.28;4.60;;;;;;;3.57;75.00;97933.31;4966606;28;103314;-69
2023/11/09 03:42:39;;;;;;;10.38;4.72;;;;;;;3.55;74.91;97930.81;4967579;28;103221;-70
2023/11/09 03:45:10;;;;;;;10.95;6.35;;;;;;;3.51;74.65;97923.38;4987547;28;102741;-69
2023/11/09 03:47:40;;;;;;;12.43;5.63;;;;;;;3.38;75.11;97927.16;4988599;28;102730;-68
2023/11/09 03:50:09;;;;;;;13.88;6.43;;;;;;;3.29;75.35;97922.75;4989386;28;103709;-69
2023/11/09 03:52:39;;;;;;;12.20;5.45;;;;;;;3.34;75.36;97917.94;4986863;28;103030;-68
2023/11/09 03:55:11;;;;;;;9.40;6.05;;;;;;;3.30;74.99;97913.91;4989471;28;102768;-69
2023/11/09 03:57:39;;;;;;;9.32;5.35;;;;;;;3.32;75.16;97918.06;4968354;28;102621;-68
2023/11/09 04:00:12;;;;;;;8.43;5.18;;;;;;;3.40;74.88;97912.09;4987476;28;103311;-69
2023/11/09 04:02:42;;;;;;;8.18;4.72;;;;;;;3.51;74.96;97907.69;4982464;28;103403;-69
2023/11/09 04:05:13;;;;;;;6.07;3.75;;;;;;;3.61;74.79;97904.06;4967884;28;102820;-69
2023/11/09 04:07:48;;;;;;;9.95;6.25;;;;;;;3.58;73.78;97901.72;4987443;28;103108;-68
2023/11/09 04:10:16;;;;;;;10.90;6.50;;;;;;;3.33;74.31;97900.56;4961970;28;103455;-68
2023/11/09 04:12:45;;;;;;;8.52;4.93;;;;;;;3.28;74.96;97892.31;4970809;28;102739;-68
2023/11/09 04:15:14;;;;;;;7.68;4.78;;;;;;;3.36;74.80;97889.81;4988149;28;102816;-67
2023/11/09 04:17:42;;;;;;;10.98;4.70;;;;;;;3.50;74.65;97891.16;4990451;28;102729;-69
2023/11/09 04:20:10;;;;;;;6.10;4.10;;;;;;;3.55;74.30;97888.94;4981925;28;103253;-69
2023/11/09 04:22:38;;;;;;;5.95;3.80;;;;;;;3.59;74.49;97890.28;4987084;28;103228;-69
2023/11/09 04:25:09;;;;;;;8.57;5.13;;;;;;;3.65;74.07;97878.41;4971013;28;102736;-69
2023/11/09 04:27:38;;;;;;;7.47;4.65;;;;;;;3.70;74.28;97878.81;4985509;28;103689;-69
2023/11/09 04:30:09;;;;;;;9.35;4.93;;;;;;;3.79;73.83;97885.78;4969092;28;104555;-70
2023/11/09 04:32:39;;;;;;;6.68;3.78;;;;;;;3.85;73.66;97871.28;4986617;28;103030;-69
2023/11/09 04:35:08;;;;;;;6.78;3.60;;;;;;;3.89;73.75;97875.28;4994683;28;103069;-70
2023/11/09 04:37:41;;;;;;;5.20;3.15;;;;;;;3.93;73.37;97870.53;4990725;28;104064;-69
2023/11/09 04:40:15;;;;;;;5.95;3.55;;;;;;;3.96;73.01;97867.66;4972149;28;103252;-69
2023/11/09 04:42:46;;;;;;;10.75;3.92;;;;;;;3.99;72.54;97880.44;4992329;28;103240;-70
2023/11/09 04:45:16;;;;;;;6.75;3.85;;;;;;;4.03;72.84;97868.69;4987295;28;104125;-71
2023/11/09 04:47:45;;;;;;;6.80;4.03;;;;;;;4.08;72.80;97865.66;4984203;28;102601;-69
2023/11/09 04:50:15;;;;;;;7.93;5.95;;;;;;;4.15;72.53;97872.78;4979343;28;103182;-70
2023/11/09 04:52:51;;;;;;;5.80;4.95;;;;;;;4.18;72.57;97865.59;4988222;28;103264;-70
2023/11/09 04:55:31;;;;;;;7.85;4.45;;;;;;;4.26;72.11;97852.59;4981974;28;102716;-69
2023/11/09 05:09:04;;;;;;;6.45;4.00;;;;;;;4.20;71.72;97843.50;4985918;28;102605;-69
2023/11/09 05:11:33;;;;;;;5.85;3.88;;;;;;;3.78;73.20;97836.97;4981952;28;103260;-66
2023/11/09 05:14:01;;;;;;;7.00;4.68;;;;;;;3.54;73.90;97847.16;4985896;28;103112;-67
2023/11/09 05:16:30;;;;;;;9.18;5.20;;;;;;;3.44;74.31;97860.31;4990772;28;102764;-67
2023/11/09 05:18:59;;;;;;;9.25;5.38;;;;;;;3.33;75.12;97850.84;4985961;28;102902;-66
2023/11/09 05:21:27;;;;;;;13.20;6.20;;;;;;;3.43;74.65;97837.69;4968966;28;105177;-66
2023/11/09 05:23:57;;;;;;;8.60;5.70;;;;;;;3.43;74.65;97833.31;4989133;28;103212;-66
2023/11/09 05:26:25;;;;;;;9.35;5.32;;;;;;;3.39;74.94;97831.94;4980714;28;102676;-67
2023/11/09 05:28:55;;;;;;;8.43;5.50;;;;;;;3.36;75.03;97824.38;4984405;28;103807;-67
2023/11/09 05:31:23;;;;;;;9.05;5.00;;;;;;;3.42;74.66;97826.41;4982064;28;103249;-67
2023/11/09 05:33:52;;;;;;;10.20;5.22;;;;;;;3.46;74.36;97832.19;4981520;28;103027;-66
2023/11/09 05:36:23;;;;;;;9.68;5.38;;;;;;;3.45;74.96;97831.34;4964552;28;102694;-67
2023/11/09 05:38:51;;;;;;;12.68;5.97;;;;;;;3.38;75.79;97835.53;4970448;28;102819;-66
2023/11/09 05:41:19;;;;;;;9.07;5.20;;;;;;;3.32;75.73;97828.25;4987553;28;103626;-67
2023/11/09 05:43:49;;;;;;;9.65;6.28;;;;;;;3.28;76.20;97821.66;4986160;28;103264;-67
2023/11/09 05:46:20;;;;;;;9.48;4.93;;;;;;;3.34;75.45;97822.88;4985466;28;102690;-67
2023/11/09 05:48:51;;;;;;;9.43;5.65;;;;;;;3.41;75.20;97823.94;4986104;28;103655;-66
2023/11/09 05:51:21;;;;;;;8.02;4.82;;;;;;;3.43;75.00;97829.84;4968011;28;104128;-67
2023/11/09 05:53:49;;;;;;;10.18;5.70;;;;;;;3.46;75.44;97814.69;4982231;28;103341;-67
2023/11/09 05:56:18;;;;;;;10.43;5.22;;;;;;;3.62;75.04;97815.84;4982467;28;102685;-67
2023/11/09 05:58:46;;;;;;;9.45;5.10;;;;;;;3.71;74.37;97820.22;4969839;28;103083;-66
2023/11/09 06:01:14;;;;;;;9.93;5.18;;;;;;;3.62;74.76;97821.91;4982924;28;104587;-67
2023/11/09 06:03:43;;;;;;;10.27;5.40;;;;;;;3.74;74.29;97819.09;4983514;28;103335;-66
2023/11/09 06:06:12;;;;;;;10.77;4.82;;;;;;;3.81;74.08;97821.00;4969664;28;102787;-66
2023/11/09 06:08:40;;;;;;;8.85;5.05;;;;;;;3.87;73.91;97808.28;4987822;28;102697;-66
2023/11/09 06:11:11;;;;;;;8.15;4.63;;;;;;;3.97;74.46;97814.28;4983489;28;104287;-66
2023/11/09 06:13:39;;;;;;;7.30;3.95;;;;;;;4.10;73.63;97820.00;4990846;28;103400;-66
2023/11/09 06:16:09;;;;;;;7.45;4.50;;;;;;;4.18;73.36;97811.38;4985440;28;102611;-66
2023/11/09 06:18:37;;;;;;;7.38;4.32;;;;;;;4.26;73.36;97816.69;4993276;28;102704;-66
2023/11/09 06:21:09;;;;;;;7.97;3.50;;;;;;;4.34;73.06;97815.94;4993684;28;103232;-66
2023/11/09 06:23:37;;;;;;;7.78;4.57;;;;;;;4.39;72.82;97812.84;4983911;28;103005;-66
2023/11/09 06:26:05;;;;;;;6.38;3.70;;;;;;;4.47;72.79;97811.13;4986872;28;102669;-66
2023/11/09 06:28:34;;;;;;;6.50;3.95;;;;;;;4.55;72.37;97823.50;4992416;28;102737;-66
2023/11/09 06:31:06;;;;;;;5.05;3.53;;;;;;;4.59;72.35;97810.91;4996112;28;103007;-66
2023/11/09 06:33:35;;;;;;;5.40;3.45;;;;;;;4.62;72.50;97808.81;4972558;28;103214;-66
2023/11/09 06:36:06;;;;;;;8.50;4.07;;;;;;;4.73;72.17;97805.13;4991788;28;102677;-66
2023/11/09 06:38:35;;;;;;;8.45;4.20;;;;;;;4.79;71.92;97811.53;4993035;28;103903;-65
2023/11/09 06:41:04;;;;;;;7.18;4.32;;;;;;;4.82;71.69;97805.97;4988738;28;103246;-66
2023/11/09 06:43:32;;;;;;;5.95;3.55;;;;;;;4.89;71.65;97811.47;4970114;28;103335;-68
2023/11/09 06:46:08;;;;;;;5.28;3.50;;;;;;;4.95;71.62;97818.69;4974636;28;102676;-68
2023/11/09 06:48:36;;;;;;;6.38;3.45;;;;;;;4.99;72.14;97812.16;4988471;28;105006;-69
2023/11/09 06:51:05;;;;;;;7.90;3.80;;;;;;;5.05;71.92;97803.69;4989677;28;104666;-69
2023/11/09 06:53:35;;;;;;;6.15;3.70;;;;;;;5.10;71.64;97811.09;4981923;28;103270;-68
2023/11/09 06:56:03;;;;;;;9.23;4.55;;;;;;;5.09;71.82;97799.75;4989319;28;103065;-69
2023/11/09 06:58:30;;;;;;;7.43;3.83;;;;;;;5.15;71.77;97809.66;4992709;28;102745;-66
2023/11/09 07:01:04;;;;;;;9.98;4.65;;;;;;;5.21;71.32;97813.44;4971087;28;102760;-66
2023/11/09 07:03:32;;;;;;;5.43;3.67;;;;;;;5.29;70.60;97817.91;4989424;28;103251;-66
2023/11/09 07:06:03;;;;;;;5.15;3.00;;;;;;;5.40;70.21;97822.09;4991674;28;102608;-66
2023/11/09 07:08:34;;;;;;;6.05;3.50;;;;;;;5.54;69.56;97815.41;4985506;28;104242;-66
2023/11/09 07:11:02;;;;;;;7.60;3.53;;;;;;;5.56;69.59;97816.09;4992839;28;103048;-66
2023/11/09 07:13:30;;;;;;;7.88;3.78;;;;;;;5.58;69.79;97809.69;4983642;28;103077;-66
2023/11/09 07:15:58;;;;;;;5.80;3.55;;;;;;;5.66;69.43;97811.53;4987504;28;102997;-66
2023/11/09 07:18:30;;;;;;;6.88;3.80;;;;;;;5.71;69.37;97814.50;4985681;28;104479;-66
2023/11/09 07:20:58;;;;;;;6.47;4.10;;;;;;;5.72;69.05;97816.13;4984902;28;104006;-66
2023/11/09 07:23:40;;;;;;;8.70;4.03;;;;;;;5.77;69.17;97821.75;4985060;28;103236;-66
2023/11/09 07:26:09;;;;;;;8.25;3.78;;;;;;;5.81;69.33;97822.25;4969322;28;102665;-65
2023/11/09 07:28:39;;;;;;;5.35;3.35;;;;;;;5.87;69.42;97824.25;4989206;28;102694;-66
2023/11/09 07:31:07;;;;;;;6.22;3.40;;;;;;;5.89;69.11;97831.97;4982185;28;103234;-66
2023/11/09 07:33:37;;;;;;;7.07;3.47;;;;;;;5.96;68.39;97831.19;4984121;28;103038;-66
2023/11/09 07:36:06;;;;;;;5.10;2.88;;;;;;;6.08;66.10;97830.91;4965685;28;102753;-66
2023/11/09 07:38:34;;;;;;;5.50;2.63;;;;;;;6.26;65.01;97836.03;4968473;28;103222;-66
2023/11/09 07:41:04;;;;;;;3.55;2.20;;;;;;;6.37;64.36;97834.91;4983931;28;103316;-66
2023/11/09 07:43:32;;;;;;;4.32;2.10;;;;;;;6.63;61.58;97846.09;4985060;28;102670;-66
2023/11/09 07:46:00;;;;;;;4.25;2.58;;;;;;;6.74;62.70;97846.78;4975096;28;102609;-66
2023/11/09 07:48:28;;;;;;;3.92;2.15;;;;;;;6.91;61.69;97842.31;4985798;28;103764;-66
2023/11/09 07:50:56;;;;;;;4.15;2.10;;;;;;;6.99;61.84;97855.47;4989608;28;103246;-68
2023/11/09 07:53:24;;;;;;;4.72;2.35;;;;;;;7.05;62.12;97841.66;4987421;28;103472;-69
2023/11/09 07:55:52;;;;;;;3.85;2.00;;;;;;;7.13;62.87;97846.09;4987713;28;103240;-70
2023/11/09 07:58:22;;;;;;;4.07;2.03;;;;;;;7.19;63.89;97839.31;4972842;28;103577;-68
2023/11/09 08:00:51;;;;;;;4.00;2.15;;;;;;;7.21;63.10;97837.34;4988589;28;103219;-66
2023/11/09 08:03:19;;;;;;;3.33;1.80;;;;;;;7.29;63.06;97832.06;4971269;28;104277;-65
2023/11/09 08:05:48;;;;;;;3.72;2.22;;;;;;;7.39;63.96;97840.59;4978151;28;102637;-66
2023/11/09 08:08:16;;;;;;;3.55;1.83;;;;;;;7.44;63.33;97838.28;4988313;28;103799;-66
2023/11/09 08:10:45;;;;;;;6.90;2.05;;;;;;;7.53;63.29;97840.88;4989721;28;103871;-67
2023/11/09 08:13:13;;;;;;;3.00;2.00;;;;;;;7.56;63.47;97845.81;4990343;28;103716;-67
2023/11/09 08:15:43;;;;;;;3.72;2.33;;;;;;;7.63;62.87;97833.59;4984958;28;103383;-67
2023/11/09 08:18:11;;;;;;;4.63;2.28;;;;;;;7.71;62.61;97832.75;4961287;28;102732;-66
2023/11/09 08:20:39;;;;;;;3.50;2.00;;;;;;;7.75;62.20;97815.59;4988556;28;103957;-66
2023/11/09 08:23:08;;;;;;;3.75;1.90;;;;;;;7.88;62.81;97828.22;4985382;28;104009;-68
2023/11/09 08:25:36;;;;;;;3.20;1.80;;;;;;;7.94;61.55;97824.91;4986510;28;103123;-69
2023/11/09 08:28:05;;;;;;;2.63;1.88;;;;;;;8.00;61.55;97831.31;4985115;28;102676;-68
2023/11/09 08:30:36;;;;;;;2.50;1.70;;;;;;;8.02;62.37;97830.13;4970466;28;103687;-66
2023/11/09 08:33:09;;;;;;;4.00;2.10;;;;;;;8.12;60.81;97832.53;4986658;28;103239;-65
2023/11/09 08:35:38;;;;;;;3.15;2.00;;;;;;;8.18;60.78;97838.97;4984733;28;102640;-68
2023/11/09 08:38:08;;;;;;;3.03;1.83;;;;;;;8.24;60.99;97838.25;4964065;28;102792;-68
2023/11/09 08:40:38;;;;;;;2.90;2.00;;;;;;;8.36;59.10;97846.56;4993838;28;103224;-68
2023/11/09 08:43:06;;;;;;;3.38;2.05;;;;;;;8.39;59.93;97857.59;4983123;28;103400;-68
2023/11/09 08:45:34;;;;;;;4.38;2.00;;;;;;;8.46;59.97;97840.13;4982918;28;102641;-67
2023/11/09 08:48:07;;;;;;;3.78;2.17;;;;;;;8.50;58.96;97843.22;4991287;28;103213;-69
2023/11/09 08:50:38;;;;;;;4.07;2.10;;;;;;;8.50;59.36;97831.84;4982049;28;103309;-68
2023/11/09 08:53:07;;;;;;;4.50;2.13;;;;;;;8.50;58.79;97826.56;4985942;28;103369;-69
2023/11/09 08:55:39;;;;;;;4.97;1.90;;;;;;;8.53;59.23;97828.84;4985484;28;103048;-69
2023/11/09 08:58:07;;;;;;;3.05;2.00;;;;;;;8.54;58.29;97835.78;4986702;28;102979;-69
2023/11/09 09:00:35;;;;;;;5.07;2.38;;;;;;;8.63;57.84;97826.78;4983838;28;104495;-68
2023/11/09 09:03:02;;;;;;;3.67;2.22;;;;;;;8.66;58.13;97829.09;4986562;28;103285;-68
2023/11/09 09:05:31;;;;;;;3.63;2.30;;;;;;;8.70;57.72;97826.91;4984994;28;102996;-68
2023/11/09 09:08:00;;;;;;;7.97;2.40;;;;;;;8.61;56.97;97823.53;4969065;28;102757;-68
2023/11/09 09:10:31;;;;;;;4.18;2.20;;;;;;;8.62;57.55;97825.97;4988728;28;103977;-68
2023/11/09 09:13:01;;;;;;;4.43;2.72;;;;;;;8.69;57.09;97831.38;4987211;28;103246;-68
2023/11/09 09:15:29;;;;;;;4.30;2.50;;;;;;;8.71;57.73;97824.09;4987487;28;103129;-68
2023/11/09 09:17:58;;;;;;;4.13;2.25;;;;;;;8.74;57.76;97818.47;4986389;28;103004;-68
2023/11/09 09:20:27;;;;;;;3.83;2.42;;;;;;;8.71;56.99;97816.19;4983081;28;103250;-68
2023/11/09 09:22:59;;;;;;;5.45;2.65;;;;;;;8.72;56.98;97815.16;4983711;28;103194;-68
2023/11/09 09:25:30;;;;;;;5.47;2.38;;;;;;;8.81;57.69;97823.03;4966734;28;102768;-68
2023/11/09 09:28:01;;;;;;;5.53;2.58;;;;;;;8.81;57.48;97825.69;4988905;28;103833;-69
2023/11/09 09:30:29;;;;;;;3.33;1.90;;;;;;;8.76;57.21;97821.75;4986336;28;103071;-70
2023/11/09 09:32:59;;;;;;;3.28;1.85;;;;;;;8.70;57.01;97822.47;4986256;28;102659;-69
2023/11/09 09:35:30;;;;;;;4.65;2.13;;;;;;;8.83;57.67;97815.75;4989336;28;102624;-68
2023/11/09 09:38:11;;;;;;;4.32;2.22;;;;;;;8.78;57.66;97813.66;4989989;28;103098;-69
2023/11/09 09:40:43;;;;;;;4.28;2.47;;;;;;;8.85;57.62;97806.63;4987469;28;102970;-68
2023/11/09 09:43:19;;;;;;;4.18;2.35;;;;;;;8.85;58.41;97803.19;4988246;28;103944;-68
2023/11/09 09:45:57;;;;;;;3.83;2.35;;;;;;;8.85;57.36;97798.72;4966332;28;102771;-69
2023/11/09 09:48:28;;;;;;;4.50;2.35;;;;;;;8.92;57.75;97812.03;4984116;28;102658;-69
2023/11/09 09:50:58;;;;;;;4.38;2.45;;;;;;;8.91;58.07;97805.13;4982680;28;103203;-68
2023/11/09 09:53:28;;;;;;;4.68;2.45;;;;;;;8.98;57.93;97806.03;4984343;28;103139;-68
2023/11/09 09:55:58;;;;;;;3.13;2.08;;;;;;;9.04;58.18;97807.97;4985266;28;103072;-68
2023/11/09 10:02:55;;;;;;;3.97;2.20;;;;;;;9.13;57.68;97798.94;4979423;28;103095;-68
2023/11/09 10:05:25;;;;;;;4.28;1.98;;;;;;;9.26;58.17;97800.97;4983709;28;103350;-68
2023/11/09 10:07:58;;;;;;;4.32;2.22;;;;;;;9.29;57.87;97795.31;4995849;28;102682;-66
2023/11/09 10:10:28;;;;;;;13.85;2.40;;;;;;;9.38;57.37;97792.56;4988244;28;102717;-67
2023/11/09 10:12:57;;;;;;;3.05;2.08;;;;;;;9.50;57.41;97798.22;4977089;28;103421;-68
2023/11/09 10:15:26;;;;;;;4.40;2.20;;;;;;;9.48;57.88;97797.59;4994501;28;103294;-67
2023/11/09 10:17:55;;;;;;;3.60;2.30;;;;;;;9.62;57.64;97794.13;4972706;28;103040;-68
2023/11/09 10:20:24;;;;;;;3.03;1.80;;;;;;;9.72;57.89;97799.09;4969775;28;104224;-69
2023/11/09 10:22:54;;;;;;;3.42;2.03;;;;;;;9.74;57.34;97786.53;4969999;28;104304;-69
2023/11/09 10:25:26;;;;;;;2.78;1.70;;;;;;;9.76;57.36;97790.63;4975834;28;103188;-66
2023/11/09 10:28:00;;;;;;;4.10;1.98;;;;;;;9.82;57.34;97790.91;4992344;28;102703;-66
2023/11/09 10:30:37;;;;;;;2.70;1.90;;;;;;;9.86;57.22;97794.81;4994204;28;104010;-66
2023/11/09 10:33:08;;;;;;;3.97;1.70;;;;;;;10.00;57.39;97788.66;4981249;28;102868;-69
2023/11/09 10:35:38;;;;;;;2.63;1.70;;;;;;;10.03;57.09;97782.97;4990661;28;103190;-67
2023/11/09 10:38:08;;;;;;;2.95;1.80;;;;;;;10.09;56.91;97778.78;4994736;28;102760;-66
2023/11/09 10:40:37;;;;;;;4.18;1.80;;;;;;;10.15;57.26;97762.16;4994529;28;102818;-68
2023/11/09 10:43:14;;;;;;;4.13;1.90;;;;;;;10.23;57.03;97763.84;4993099;28;103238;-69
2023/11/09 10:45:44;;;;;;;3.28;1.88;;;;;;;10.26;57.11;97768.78;4988722;28;103149;-67
2023/11/09 10:48:17;;;;;;;3.25;1.77;;;;;;;10.28;57.20;97761.47;4982706;28;103515;-69
2023/11/09 10:50:47;;;;;;;3.00;1.98;;;;;;;10.29;57.33;97752.53;4990865;28;102822;-67
2023/11/09 10:53:17;;;;;;;2.55;1.60;;;;;;;10.36;57.28;97750.78;4983240;28;104076;-70
2023/11/09 10:55:47;;;;;;;2.55;1.60;;;;;;;10.41;57.51;97750.22;4994112;28;103282;-69
2023/11/09 10:58:20;;;;;;;2.47;1.57;;;;;;;10.43;57.74;97751.66;4968152;28;102647;-69
2023/11/09 11:00:51;;;;;;;3.25;1.60;;;;;;;10.50;58.07;97753.56;4966542;28;103060;-69
2023/11/09 11:03:27;;;;;;;5.65;1.60;;;;;;;10.60;57.84;97738.16;4997723;28;103371;-68
2023/11/09 11:05:59;;;;;;;5.65;1.98;;;;;;;10.69;57.66;97747.59;4973209;28;103263;-69
2023/11/09 11:08:31;;;;;;;2.70;1.60;;;;;;;10.84;57.58;97749.34;4973648;28;102735;-69
2023/11/09 11:11:00;;;;;;;3.60;1.63;;;;;;;10.99;57.49;97736.81;4974940;28;104149;-69
2023/11/09 11:13:32;;;;;;;2.38;1.50;;;;;;;10.97;57.44;97728.22;4964639;28;103268;-70
2023/11/09 11:16:42;;;;;;;1.83;1.40;;;;;;;11.07;57.52;97722.56;4991272;28;103220;-66
2023/11/09 11:19:41;;;;;;;1.83;1.42;;;;;;;11.15;58.08;97724.22;4975339;28;102681;-66
2023/11/09 11:22:33;;;;;;;2.60;1.30;;;;;;;11.21;58.00;97718.16;4969009;28;103137;-66
2023/11/09 11:25:24;;;;;;;1.63;1.30;;;;;;;11.33;57.74;97710.47;4989980;28;104463;-66
2023/11/09 11:27:56;;;;;;;2.92;1.50;;;;;;;11.32;57.85;97714.97;4985418;28;103369;-66
2023/11/09 11:30:28;;;;;;;3.47;1.80;;;;;;;11.40;57.85;97706.84;4983787;28;102748;-66
2023/11/09 11:32:59;;;;;;;2.30;1.40;;;;;;;11.43;57.88;97706.44;4995212;28;103057;-67
2023/11/09 11:35:39;;;;;;;2.67;1.63;;;;;;;11.47;57.87;97706.84;4988784;28;103234;-67
2023/11/09 11:38:21;;;;;;;2.10;1.30;;;;;;;11.48;57.77;97710.34;4990686;28;103205;-66
2023/11/09 11:40:52;;;;;;;2.97;1.30;;;;;;;11.52;57.52;97695.66;4988247;28;103009;-69
2023/11/09 11:43:21;;;;;;;1.75;1.30;;;;;;;11.52;57.26;97699.13;4988448;28;102611;-69
2023/11/09 11:45:53;;;;;;;1.88;1.33;;;;;;;11.58;57.63;97692.19;4970158;28;104150;-69
2023/11/09 11:48:25;;;;;;;1.67;1.20;;;;;;;11.55;57.60;97687.31;4983339;28;103189;-68
2023/11/09 11:50:56;;;;;;;2.50;1.40;;;;;;;11.57;57.98;97690.59;4976583;28;102763;-69
2023/11/09 11:53:29;;;;;;;2.10;1.20;;;;;;;11.47;57.77;97706.06;4989999;28;103818;-69
2023/11/09 11:55:58;;;;;;;2.25;1.30;;;;;;;11.48;57.77;97694.44;4982274;28;104134;-68
2023/11/09 11:58:39;;;;;;;2.60;1.20;;;;;;;11.47;57.94;97695.44;4983830;28;103213;-69
2023/11/09 12:01:18;;;;;;;2.08;1.50;;;;;;;11.51;57.74;97686.06;4961404;28;103912;-69